Terminal Aerodrome Forecast
Issued by NWS

Home | Current Version | Previous Version | Text Only | Print | Product List | Glossary On
Versions: 1 2 3 4 5 6 7 8 9 10 11 12 13 14 15 16 17 18 19 20 21 22 23 24 25
000
FTAK31 PAFA 251432 AAA
TAFAUN
TAF AMD
PAUN 251432Z 2515/2612 19015G18KT P6SM -SHRA FEW050 OVC080
     FM252300 23010KT P6SM -SHRA OVC015
     FM260800 25012KT P6SM SCT015 BKN050 OVC100=

USA.gov is the U.S. government's official web portal to all federal, state and local government web resources and services.